Time;durP1;ratioP1;P1;durP2;ratioP2;P2;SDS_P1;SDS_P2;PMS_P1;PMS_P2;Temp;Humidity;BMP_temperature;BMP_pressure;BME280_temperature;BME280_humidity;BME280_pressure;Samples;Min_cycle;Max_cycle;Signal;HPM_P1;HPM_P2
2024/01/16 00:00:28;;;;;;;207.73;93.80;;;;;;;3.93;84.26;100015.59;5009528;28;20714;-81
2024/01/16 00:02:55;;;;;;;193.52;91.35;;;;;;;4.04;83.75;100050.69;5026024;28;20442;-80
2024/01/16 00:05:23;;;;;;;184.68;88.65;;;;;;;3.97;84.06;100051.22;5005392;28;20499;-82
2024/01/16 00:07:52;;;;;;;185.82;86.22;;;;;;;3.37;83.81;99974.84;5019217;28;20046;-81
2024/01/16 00:10:19;;;;;;;185.98;87.97;;;;;;;3.29;83.31;99973.69;5034150;28;20053;-82
2024/01/16 00:12:47;;;;;;;187.75;88.68;;;;;;;3.50;84.43;100010.75;5016290;28;20049;-82
2024/01/16 00:15:14;;;;;;;196.35;95.25;;;;;;;4.01;84.91;100071.91;5000214;28;20415;-82
2024/01/16 00:17:46;;;;;;;191.55;94.00;;;;;;;4.00;84.74;100067.59;4970621;28;20045;-81
2024/01/16 00:20:13;;;;;;;177.23;90.82;;;;;;;3.66;83.94;100028.88;4984292;28;20453;-82
2024/01/16 00:22:43;;;;;;;181.25;89.40;;;;;;;3.80;83.94;100047.16;4988001;28;20519;-79
2024/01/16 00:25:10;;;;;;;192.73;90.75;;;;;;;3.81;83.61;100064.56;4988250;28;20049;-81
2024/01/16 00:27:37;;;;;;;173.57;86.50;;;;;;;3.52;84.47;100020.19;5008821;28;20054;-82
2024/01/16 00:30:06;;;;;;;186.85;91.53;;;;;;;3.80;84.07;100063.72;5008924;28;20388;-82
2024/01/16 00:32:36;;;;;;;184.45;89.90;;;;;;;3.98;84.80;100069.50;4999318;28;20435;-81
2024/01/16 00:35:05;;;;;;;184.18;86.05;;;;;;;3.96;84.33;100078.44;5016563;28;20046;-81
2024/01/16 00:37:35;;;;;;;190.52;92.18;;;;;;;3.85;83.64;100071.28;4976879;28;20057;-82
2024/01/16 00:40:14;;;;;;;183.57;88.65;;;;;;;3.84;83.36;100088.00;5000809;28;20341;-81
2024/01/16 00:42:54;;;;;;;200.88;91.65;;;;;;;3.87;84.24;100074.66;4953787;28;20057;-81
2024/01/16 00:45:22;;;;;;;186.20;90.65;;;;;;;3.82;84.05;100095.16;4962606;28;20076;-83
2024/01/16 00:47:52;;;;;;;187.83;90.27;;;;;;;3.81;84.08;100093.44;5008035;28;20057;-82
2024/01/16 00:50:24;;;;;;;200.32;94.32;;;;;;;3.83;84.55;100088.94;5013381;28;20053;-82
2024/01/16 00:52:52;;;;;;;184.18;89.53;;;;;;;3.70;83.66;100082.88;5010150;28;20330;-81
2024/01/16 00:55:18;;;;;;;195.20;88.82;;;;;;;3.74;84.32;100090.44;5004327;28;20575;-82
2024/01/16 00:57:45;;;;;;;183.75;87.90;;;;;;;3.97;84.67;100127.38;5011466;28;20925;-82
2024/01/16 01:00:12;;;;;;;195.15;91.07;;;;;;;4.04;84.58;100113.72;5007357;28;20460;-81
2024/01/16 01:02:39;;;;;;;177.30;88.28;;;;;;;3.83;84.35;100094.19;5010730;28;20377;-81
2024/01/16 01:05:10;;;;;;;177.57;88.53;;;;;;;4.00;83.78;100111.41;4963421;28;20499;-82
2024/01/16 01:07:46;;;;;;;180.50;91.38;;;;;;;4.04;83.32;100100.59;4994072;28;20088;-81
2024/01/16 01:10:31;;;;;;;187.80;90.38;;;;;;;4.24;83.33;100135.13;4966460;28;20269;-83
2024/01/16 01:13:00;;;;;;;190.15;90.75;;;;;;;4.06;82.84;100132.00;4955747;28;20060;-82
2024/01/16 01:15:37;;;;;;;181.13;90.50;;;;;;;3.92;82.55;100130.31;5004731;28;20103;-80
2024/01/16 01:18:06;;;;;;;187.27;90.53;;;;;;;3.96;83.53;100147.56;5003130;28;20522;-83
2024/01/16 01:20:39;;;;;;;174.05;90.18;;;;;;;3.92;83.68;100158.38;5004145;28;20063;-81
2024/01/16 01:23:07;;;;;;;191.52;88.45;;;;;;;3.68;83.79;100109.22;5009209;28;20067;-80
2024/01/16 01:25:34;;;;;;;184.68;88.03;;;;;;;2.90;83.91;99983.31;5006840;28;20049;-80
2024/01/16 01:28:01;;;;;;;184.13;88.20;;;;;;;3.76;84.10;100140.19;5009015;28;20399;-82
2024/01/16 01:30:28;;;;;;;169.05;84.53;;;;;;;3.76;83.09;100169.06;5034177;28;20049;-81
2024/01/16 01:32:59;;;;;;;182.95;87.72;;;;;;;3.82;83.68;100187.06;4993285;28;20166;-82
2024/01/16 01:35:33;;;;;;;177.35;87.88;;;;;;;3.85;84.44;100181.59;4989279;28;20146;-83
2024/01/16 01:38:12;;;;;;;180.75;86.35;;;;;;;3.82;84.31;100182.63;4979678;28;20057;-82
2024/01/16 01:40:46;;;;;;;169.50;86.22;;;;;;;3.96;84.56;100188.75;5002983;28;20041;-82
2024/01/16 01:43:20;;;;;;;178.90;86.78;;;;;;;3.38;83.79;100120.84;5016195;28;20568;-81
2024/01/16 01:46:14;;;;;;;179.35;85.80;;;;;;;3.86;83.96;100199.03;5003798;28;20042;-81
2024/01/16 01:48:41;;;;;;;169.25;87.18;;;;;;;3.93;84.04;100194.19;4963927;28;20049;-82
2024/01/16 01:51:13;;;;;;;171.90;84.35;;;;;;;3.83;83.69;100201.84;4986460;28;20147;-79
2024/01/16 01:53:50;;;;;;;167.88;83.25;;;;;;;3.80;83.69;100209.94;4995494;28;20157;-79
2024/01/16 01:56:20;;;;;;;162.20;80.57;;;;;;;3.54;83.03;100183.63;4999458;28;20384;-81
2024/01/16 01:58:52;;;;;;;176.75;82.50;;;;;;;3.56;83.82;100202.75;5019973;28;20080;-82
2024/01/16 02:01:20;;;;;;;;;;;;;;;3.76;84.54;100224.22;5024983;28;20053;-82
2024/01/16 02:03:51;;;;;;;170.90;82.10;;;;;;;3.47;84.04;100153.50;5024082;28;19921;-81
2024/01/16 02:06:17;;;;;;;172.38;85.20;;;;;;;3.86;83.01;100193.78;5022206;28;20116;-80
2024/01/16 02:08:45;;;;;;;173.52;82.45;;;;;;;3.97;82.25;100207.00;5017023;28;20480;-80
2024/01/16 02:11:12;;;;;;;164.52;79.03;;;;;;;3.87;82.78;100198.09;5012415;28;20491;-81
2024/01/16 02:13:41;;;;;;;184.02;82.38;;;;;;;3.83;82.76;100230.72;5016130;28;20076;-81
2024/01/16 02:16:24;;;;;;;164.95;76.95;;;;;;;3.72;82.80;100235.88;5011838;28;20115;-82
2024/01/16 02:18:52;;;;;;;156.38;76.55;;;;;;;3.67;83.54;100230.09;4984916;28;20522;-81
2024/01/16 02:21:28;;;;;;;157.63;76.65;;;;;;;3.63;83.96;100230.28;4962287;28;20050;-80
2024/01/16 02:24:02;;;;;;;160.20;77.13;;;;;;;3.43;84.13;100209.75;4952977;28;20350;-82
2024/01/16 02:26:40;;;;;;;151.88;74.47;;;;;;;3.46;84.01;100227.91;4956000;28;20057;-82
2024/01/16 02:29:09;;;;;;;155.60;74.03;;;;;;;3.50;84.28;100239.06;4955744;28;20049;-82
2024/01/16 02:31:38;;;;;;;147.40;71.93;;;;;;;3.54;84.26;100251.88;5005249;28;20088;-80
2024/01/16 02:34:05;;;;;;;160.25;72.95;;;;;;;3.46;84.03;100241.03;5006512;28;20080;-84
2024/01/16 02:36:32;;;;;;;156.20;75.68;;;;;;;3.61;84.28;100242.66;4981639;28;20331;-83
2024/01/16 02:39:03;;;;;;;160.52;75.97;;;;;;;3.61;84.46;100242.66;4967981;28;20782;-84
2024/01/16 02:41:33;;;;;;;140.85;71.40;;;;;;;3.46;83.88;100233.16;5000797;28;20140;-82
2024/01/16 02:44:00;;;;;;;152.00;75.47;;;;;;;3.47;84.18;100248.00;5000038;28;20088;-82
2024/01/16 02:46:27;;;;;;;150.90;74.13;;;;;;;3.46;84.31;100259.41;5006662;28;20075;-80
2024/01/16 02:48:54;;;;;;;147.13;72.22;;;;;;;3.48;83.84;100273.28;5000677;28;20046;-81
2024/01/16 02:51:21;;;;;;;157.23;73.60;;;;;;;3.30;83.37;100237.72;4998247;28;20467;-81
2024/01/16 02:53:48;;;;;;;147.35;73.63;;;;;;;3.40;82.70;100275.56;4970867;28;20107;-83
2024/01/16 02:56:16;;;;;;;160.73;77.72;;;;;;;3.38;82.98;100273.03;4962247;28;20049;-82
2024/01/16 02:58:43;;;;;;;146.25;74.25;;;;;;;3.34;82.41;100278.56;4945712;28;20374;-83
2024/01/16 03:01:15;;;;;;;152.75;75.28;;;;;;;3.34;83.17;100278.56;4967737;28;20625;-81
2024/01/16 03:03:47;;;;;;;168.57;83.15;;;;;;;3.36;82.72;100300.31;4948849;28;20232;-82
2024/01/16 03:06:24;;;;;;;167.57;78.45;;;;;;;3.15;82.67;100287.59;4956780;28;20519;-80
2024/01/16 03:08:52;;;;;;;171.98;84.38;;;;;;;3.05;82.79;100265.50;5004789;28;20295;-79
2024/01/16 03:11:19;;;;;;;165.55;83.22;;;;;;;3.10;83.31;100292.28;5004997;28;20056;-79
2024/01/16 03:13:46;;;;;;;163.93;84.20;;;;;;;3.16;83.20;100309.44;5007079;28;20095;-78
2024/01/16 03:16:13;;;;;;;167.20;83.72;;;;;;;3.08;83.43;100290.69;4998083;28;20378;-82
2024/01/16 03:18:41;;;;;;;160.02;82.78;;;;;;;2.86;83.23;100259.72;4993736;28;20063;-79
2024/01/16 03:21:11;;;;;;;146.68;78.20;;;;;;;2.95;82.70;100290.63;4999800;28;20370;-82
2024/01/16 03:23:38;;;;;;;182.15;86.05;;;;;;;2.55;82.41;100230.19;5003065;28;20053;-80
2024/01/16 03:26:04;;;;;;;162.43;78.80;;;;;;;3.06;83.42;100313.56;4980886;28;20202;-81
2024/01/16 03:28:36;;;;;;;167.13;81.20;;;;;;;2.97;82.72;100313.19;4971661;28;20053;-82
2024/01/16 03:31:07;;;;;;;169.55;84.80;;;;;;;2.93;83.17;100313.47;4963383;28;20141;-84
2024/01/16 03:33:42;;;;;;;167.38;84.57;;;;;;;2.82;82.93;100305.44;4962850;28;20223;-81
2024/01/16 03:36:12;;;;;;;160.00;81.05;;;;;;;2.68;82.98;100299.25;4943435;28;20050;-80
2024/01/16 03:38:40;;;;;;;165.50;83.95;;;;;;;2.84;83.45;100308.78;4933786;28;20232;-81
2024/01/16 03:41:10;;;;;;;152.10;74.25;;;;;;;2.89;83.47;100310.22;4951786;28;20768;-82
2024/01/16 03:43:37;;;;;;;156.88;80.60;;;;;;;2.66;83.15;100280.16;5006534;28;20503;-81
2024/01/16 03:46:07;;;;;;;164.07;78.70;;;;;;;2.92;82.97;100325.75;5010527;28;20077;-80
2024/01/16 03:48:35;;;;;;;153.15;74.95;;;;;;;2.91;83.25;100333.72;5004180;28;20491;-81
2024/01/16 03:51:06;;;;;;;144.45;73.47;;;;;;;2.81;82.92;100322.09;5006880;28;20049;-81
2024/01/16 03:53:33;;;;;;;147.63;72.53;;;;;;;2.81;82.94;100324.72;5002036;28;20362;-80
2024/01/16 03:56:00;;;;;;;144.75;72.20;;;;;;;2.99;83.26;100324.44;5005674;28;20075;-82
2024/01/16 03:58:27;;;;;;;144.82;74.03;;;;;;;3.00;82.97;100343.63;5007413;28;20570;-82
2024/01/16 04:00:56;;;;;;;147.80;71.68;;;;;;;2.62;83.09;100283.94;5003469;28;20358;-81
2024/01/16 04:03:23;;;;;;;138.95;72.50;;;;;;;2.94;82.63;100341.41;5000397;28;20071;-80
2024/01/16 04:05:50;;;;;;;141.75;70.82;;;;;;;2.89;83.24;100346.94;4984356;28;20068;-82
2024/01/16 04:08:17;;;;;;;145.50;73.68;;;;;;;2.89;82.89;100364.41;4984438;28;20474;-80
2024/01/16 04:10:44;;;;;;;144.60;70.35;;;;;;;2.89;83.08;100352.19;4993884;28;20053;-82
2024/01/16 04:13:19;;;;;;;132.38;66.53;;;;;;;3.04;83.54;100355.63;4990407;28;20141;-84
2024/01/16 04:15:46;;;;;;;136.48;69.38;;;;;;;2.95;83.02;100343.91;4991593;28;20053;-82
2024/01/16 04:18:15;;;;;;;139.40;69.28;;;;;;;2.99;82.92;100348.03;5005413;28;20484;-83
2024/01/16 04:20:42;;;;;;;141.55;69.20;;;;;;;3.09;83.13;100345.69;5002832;28;20552;-81
2024/01/16 04:23:11;;;;;;;137.77;69.20;;;;;;;3.10;83.20;100352.63;4962691;28;20565;-82
2024/01/16 04:25:40;;;;;;;144.65;68.18;;;;;;;3.07;82.28;100365.09;4964201;28;20414;-82
2024/01/16 04:28:07;;;;;;;133.60;65.50;;;;;;;3.01;82.52;100358.47;4949045;28;20415;-80
2024/01/16 04:30:37;;;;;;;136.05;67.35;;;;;;;3.00;83.12;100356.75;4950571;28;20061;-83
2024/01/16 04:33:07;;;;;;;133.18;65.43;;;;;;;2.96;82.87;100323.78;4970006;28;20136;-82
2024/01/16 04:35:38;;;;;;;130.43;66.13;;;;;;;2.93;82.43;100310.84;4965572;28;20053;-82
2024/01/16 04:38:07;;;;;;;121.32;62.58;;;;;;;3.26;82.39;100351.69;4954087;28;20067;-81
2024/01/16 04:40:41;;;;;;;130.02;63.75;;;;;;;3.17;82.22;100332.09;4999186;28;20176;-80
2024/01/16 04:43:08;;;;;;;123.88;60.55;;;;;;;3.30;82.56;100358.41;5011660;28;20178;-82
2024/01/16 04:45:37;;;;;;;116.15;59.15;;;;;;;3.31;82.55;100354.88;5007473;28;20561;-81
2024/01/16 04:48:08;;;;;;;124.28;58.08;;;;;;;3.20;82.24;100360.75;5011137;28;20279;-80
2024/01/16 04:50:36;;;;;;;119.88;57.40;;;;;;;3.07;82.87;100358.06;5009655;28;20055;-80
2024/01/16 04:53:13;;;;;;;121.00;59.58;;;;;;;3.00;82.78;100356.75;4962090;28;20425;-81
2024/01/16 04:55:48;;;;;;;122.50;59.78;;;;;;;2.88;83.05;100352.25;4996718;28;20041;-81
2024/01/16 04:58:15;;;;;;;116.65;56.72;;;;;;;2.58;83.45;100308.63;5001512;28;20073;-78
2024/01/16 05:00:42;;;;;;;123.95;59.45;;;;;;;2.82;84.18;100363.13;4989992;28;20148;-81
2024/01/16 05:03:09;;;;;;;121.30;61.78;;;;;;;2.80;83.99;100370.25;5003440;28;20116;-81
2024/01/16 05:05:36;;;;;;;116.85;56.13;;;;;;;2.93;84.86;100386.91;5006429;28;20148;-81
2024/01/16 05:08:08;;;;;;;129.45;63.33;;;;;;;2.99;84.89;100397.03;4991749;28;20138;-82
2024/01/16 05:10:40;;;;;;;125.47;62.22;;;;;;;2.98;83.93;100390.09;4970427;28;20050;-81
2024/01/16 05:13:08;;;;;;;119.22;60.10;;;;;;;2.76;84.66;100366.94;4963646;28;20057;-81
2024/01/16 05:15:36;;;;;;;125.93;59.88;;;;;;;2.91;83.97;100388.78;4990958;28;20053;-83
2024/01/16 05:18:03;;;;;;;118.47;60.47;;;;;;;2.98;84.56;100405.81;5002001;28;20091;-81
2024/01/16 05:20:34;;;;;;;117.90;59.72;;;;;;;2.85;84.22;100379.50;4974729;28;20063;-81
2024/01/16 05:23:04;;;;;;;122.32;60.47;;;;;;;3.05;83.50;100407.13;4973077;28;20416;-82
2024/01/16 05:25:31;;;;;;;123.68;58.65;;;;;;;3.08;82.82;100391.22;4997049;28;20148;-80
2024/01/16 05:28:00;;;;;;;116.80;57.50;;;;;;;2.99;82.57;100391.78;4983309;28;20060;-79
2024/01/16 05:30:33;;;;;;;113.93;57.20;;;;;;;2.89;82.19;100382.78;4939200;28;20472;-81
2024/01/16 05:33:19;;;;;;;123.00;57.47;;;;;;;2.95;82.55;100417.34;4933936;28;20518;-82
2024/01/16 05:35:47;;;;;;;111.55;59.10;;;;;;;2.98;82.50;100424.19;4971019;28;20411;-81
2024/01/16 05:38:14;;;;;;;122.75;59.10;;;;;;;2.98;82.61;100418.94;4978643;28;20103;-82
2024/01/16 05:40:44;;;;;;;130.75;62.70;;;;;;;2.86;82.74;100402.16;4963689;28;20342;-82
2024/01/16 05:43:14;;;;;;;126.90;61.25;;;;;;;2.99;82.79;100421.47;5001374;28;20045;-82
2024/01/16 05:45:42;;;;;;;126.97;60.10;;;;;;;2.90;82.42;100402.84;5003264;28;20045;-82
2024/01/16 05:48:09;;;;;;;114.85;57.13;;;;;;;3.15;82.66;100429.25;5002203;28;20543;-81
2024/01/16 05:50:37;;;;;;;120.38;59.78;;;;;;;2.96;82.36;100398.06;5007962;28;20081;-83
2024/01/16 05:53:05;;;;;;;117.63;57.35;;;;;;;3.27;82.34;100438.16;5009546;28;20045;-82
2024/01/16 05:55:35;;;;;;;123.72;58.83;;;;;;;3.22;82.15;100435.81;5007405;28;20582;-81
2024/01/16 05:58:05;;;;;;;110.97;56.75;;;;;;;3.21;82.46;100444.63;5009385;28;20350;-80
2024/01/16 06:00:34;;;;;;;129.23;59.65;;;;;;;3.19;82.20;100433.38;5006383;28;20065;-78
2024/01/16 06:03:00;;;;;;;116.05;60.30;;;;;;;3.28;82.32;100433.78;4990050;28;20054;-81
2024/01/16 06:05:30;;;;;;;211.77;137.75;;;;;;;3.19;82.29;100437.78;4988877;28;20396;-80
2024/01/16 06:07:57;;;;;;;116.47;65.20;;;;;;;2.87;82.41;100403.03;5005093;28;20065;-79
2024/01/16 06:10:27;;;;;;;128.00;59.92;;;;;;;3.00;82.65;100441.50;5003553;28;20142;-81
2024/01/16 06:12:53;;;;;;;121.70;59.47;;;;;;;3.14;82.87;100427.56;4990664;28;20057;-82
2024/01/16 06:15:25;;;;;;;119.60;58.40;;;;;;;3.17;82.46;100437.88;4973798;28;20495;-82
2024/01/16 06:17:59;;;;;;;115.75;59.08;;;;;;;2.80;82.49;100385.97;4991705;28;20381;-82
2024/01/16 06:20:28;;;;;;;103.55;54.95;;;;;;;2.86;82.73;100414.44;5005474;28;20099;-80
2024/01/16 06:22:55;;;;;;;111.20;57.63;;;;;;;2.62;82.47;100374.78;5017236;28;20045;-80
2024/01/16 06:25:26;;;;;;;117.47;58.63;;;;;;;3.11;82.92;100459.25;5028061;28;20255;-80
2024/01/16 06:27:53;;;;;;;122.28;59.65;;;;;;;3.19;82.99;100457.00;5012781;28;20060;-81
2024/01/16 06:30:20;;;;;;;111.07;54.00;;;;;;;3.19;82.89;100436.00;5007587;28;20046;-81
2024/01/16 06:32:47;;;;;;;106.00;54.50;;;;;;;3.12;82.21;100442.56;5006234;28;20057;-82
2024/01/16 06:35:16;;;;;;;112.45;56.13;;;;;;;3.10;81.91;100457.53;4999777;28;20632;-82
2024/01/16 06:37:43;;;;;;;110.97;56.85;;;;;;;2.93;82.42;100445.44;5012560;28;20610;-80
2024/01/16 06:40:10;;;;;;;120.32;56.88;;;;;;;3.04;82.77;100484.16;5005377;28;20439;-82
2024/01/16 06:42:37;;;;;;;112.60;57.60;;;;;;;2.86;83.84;100454.59;4985650;28;20093;-83
2024/01/16 06:45:05;;;;;;;109.72;57.15;;;;;;;3.05;83.20;100480.56;4967490;28;20081;-80
2024/01/16 06:47:32;;;;;;;122.35;59.08;;;;;;;3.05;83.19;100485.81;4994538;28;20121;-81
2024/01/16 06:49:59;;;;;;;105.90;56.08;;;;;;;3.12;83.70;100488.94;4992997;28;20515;-81
2024/01/16 06:52:28;;;;;;;110.57;55.20;;;;;;;3.07;83.32;100494.44;5014307;28;20045;-82
2024/01/16 06:54:55;;;;;;;119.40;58.13;;;;;;;3.11;83.12;100514.31;5029091;28;20511;-79
2024/01/16 06:57:22;;;;;;;116.20;59.33;;;;;;;3.11;83.18;100516.94;5027355;28;20655;-79
2024/01/16 06:59:52;;;;;;;119.75;57.25;;;;;;;3.16;83.38;100514.91;5009705;28;20106;-81
2024/01/16 07:02:19;;;;;;;109.57;55.03;;;;;;;3.12;82.85;100516.00;5000700;28;20363;-82
2024/01/16 07:04:48;;;;;;;113.38;57.38;;;;;;;3.11;83.52;100505.63;5027023;28;20446;-83
2024/01/16 07:07:14;;;;;;;114.15;54.97;;;;;;;3.11;83.00;100484.63;4988747;28;20053;-82
2024/01/16 07:09:45;;;;;;;109.72;55.20;;;;;;;3.17;82.58;100481.63;4982664;28;20555;-82
2024/01/16 07:12:12;;;;;;;117.70;57.50;;;;;;;3.26;82.84;100507.31;4996508;28;20049;-81
2024/01/16 07:14:40;;;;;;;109.65;56.63;;;;;;;3.30;83.07;100521.09;4974944;28;20124;-81
2024/01/16 07:17:07;;;;;;;124.80;59.55;;;;;;;2.08;82.73;100329.00;4994796;28;20373;-80
2024/01/16 07:19:34;;;;;;;122.88;59.10;;;;;;;3.11;82.40;100497.75;5002872;28;20149;-80
2024/01/16 07:22:02;;;;;;;117.97;59.58;;;;;;;3.22;82.83;100537.28;5007294;28;20344;-79
2024/01/16 07:24:29;;;;;;;122.80;57.67;;;;;;;2.79;83.14;100463.75;5004726;28;20054;-79
2024/01/16 07:26:56;;;;;;;127.50;60.30;;;;;;;2.89;83.13;100485.91;5005868;28;20049;-80
2024/01/16 07:29:23;;;;;;;120.70;58.30;;;;;;;3.20;83.56;100532.16;4996575;28;20111;-80
2024/01/16 07:31:52;;;;;;;121.95;57.53;;;;;;;3.26;82.46;100540.59;5002544;28;20152;-80
2024/01/16 07:34:22;;;;;;;104.15;55.92;;;;;;;3.14;82.96;100527.25;5001635;28;20415;-81
2024/01/16 07:36:52;;;;;;;115.78;56.20;;;;;;;3.09;82.94;100516.19;4999986;28;20049;-82
2024/01/16 07:39:19;;;;;;;111.97;56.85;;;;;;;2.96;82.72;100507.34;4984251;28;20131;-81
2024/01/16 07:41:45;;;;;;;106.00;54.80;;;;;;;3.27;82.65;100563.25;5005169;28;20506;-82
2024/01/16 07:44:16;;;;;;;121.30;58.90;;;;;;;3.13;82.90;100541.31;5005182;28;20499;-81
2024/01/16 07:46:43;;;;;;;112.30;55.90;;;;;;;3.17;82.77;100552.47;4991755;28;20450;-82
2024/01/16 07:49:10;;;;;;;109.95;56.92;;;;;;;3.22;82.80;100566.97;4983661;28;20049;-81
2024/01/16 07:51:39;;;;;;;122.95;56.60;;;;;;;2.70;82.50;100472.19;5004884;28;20119;-81
2024/01/16 07:54:08;;;;;;;116.00;57.13;;;;;;;3.25;82.52;100557.25;4997962;28;20388;-82
2024/01/16 07:56:36;;;;;;;115.85;59.22;;;;;;;3.36;82.86;100571.44;4996416;28;20053;-81
2024/01/16 07:59:03;;;;;;;114.60;55.95;;;;;;;3.37;82.68;100574.88;4998434;28;20141;-82
2024/01/16 08:01:30;;;;;;;121.00;58.17;;;;;;;3.21;82.53;100554.81;5017236;28;20511;-82
2024/01/16 08:03:58;;;;;;;111.40;58.65;;;;;;;3.33;82.55;100571.63;5000975;28;20495;-82
2024/01/16 08:06:26;;;;;;;114.40;59.33;;;;;;;3.35;82.76;100568.88;4994703;28;20045;-82
2024/01/16 08:08:55;;;;;;;118.10;58.58;;;;;;;3.41;82.94;100589.53;4998316;28;20154;-81
2024/01/16 08:11:25;;;;;;;123.72;59.67;;;;;;;3.21;82.74;100553.97;4995353;28;20046;-80
2024/01/16 08:13:52;;;;;;;114.07;57.55;;;;;;;3.50;82.51;100596.03;4997228;28;20046;-82
2024/01/16 08:16:18;;;;;;;131.10;58.63;;;;;;;3.53;82.57;100606.34;4987264;28;20095;-81
2024/01/16 08:18:46;;;;;;;124.35;57.38;;;;;;;3.45;82.86;100587.56;4996076;28;20108;-81
2024/01/16 08:21:17;;;;;;;113.35;57.75;;;;;;;3.67;82.65;100608.97;5005033;28;20673;-82
2024/01/16 08:23:44;;;;;;;114.40;60.63;;;;;;;3.76;81.83;100618.06;5020741;28;20419;-81
2024/01/16 08:26:14;;;;;;;126.40;59.88;;;;;;;3.78;82.09;100613.56;5020021;28;20056;-82
2024/01/16 08:28:41;;;;;;;126.72;60.08;;;;;;;3.73;81.72;100602.50;5022769;28;20487;-81
2024/01/16 08:31:18;;;;;;;118.95;60.15;;;;;;;3.53;81.21;100561.72;5021270;28;20053;-82
2024/01/16 08:33:59;;;;;;;124.20;60.70;;;;;;;3.87;81.10;100610.41;5008685;28;20061;-81
2024/01/16 08:36:28;;;;;;;122.43;60.00;;;;;;;4.04;81.03;100623.34;5027873;28;20045;-81
2024/01/16 08:39:02;;;;;;;125.20;62.78;;;;;;;4.13;81.66;100629.81;5026330;28;20056;-83
2024/01/16 08:41:35;;;;;;;126.32;60.53;;;;;;;4.14;nan;100622.78;5024914;28;20084;-82
2024/01/16 08:44:02;;;;;;;134.45;67.78;;;;;;;4.02;80.58;100593.69;5020046;28;20388;-80
2024/01/16 08:46:32;;;;;;;133.40;64.85;;;;;;;3.75;80.33;100542.88;5020012;28;20045;-80
2024/01/16 08:49:02;;;;;;;146.88;66.72;;;;;;;3.81;80.43;100543.34;5015753;28;20050;-81
2024/01/16 08:51:31;;;;;;;143.18;66.45;;;;;;;4.42;81.14;100628.00;5017833;28;20045;-83
2024/01/16 08:54:04;;;;;;;137.68;70.47;;;;;;;4.30;81.18;100613.00;5024231;28;20052;-83
2024/01/16 08:56:33;;;;;;;142.38;70.82;;;;;;;4.40;80.88;100614.13;5019135;28;20515;-82
2024/01/16 08:59:02;;;;;;;136.02;70.05;;;;;;;4.14;81.36;100575.47;5023489;28;20053;-81
2024/01/16 09:01:29;;;;;;;129.77;67.22;;;;;;;4.41;81.18;100613.16;5037026;28;20050;-82
2024/01/16 09:03:57;;;;;;;153.20;73.75;;;;;;;4.50;81.09;100627.53;5020196;28;20093;-81
2024/01/16 09:06:24;;;;;;;151.02;73.22;;;;;;;4.79;80.30;100661.66;5023306;28;20041;-82
2024/01/16 09:09:01;;;;;;;160.40;77.90;;;;;;;4.69;81.05;100624.56;5012966;28;20049;-82
2024/01/16 09:11:30;;;;;;;153.07;78.65;;;;;;;4.69;80.45;100624.56;5002337;28;20042;-83
2024/01/16 09:13:58;;;;;;;157.73;75.53;;;;;;;4.50;80.23;100578.41;5023816;28;20103;-82
2024/01/16 09:16:30;;;;;;;161.52;81.32;;;;;;;5.00;80.12;100648.88;5022068;28;20057;-83
2024/01/16 09:19:04;;;;;;;157.88;77.80;;;;;;;4.70;80.22;100590.28;5017229;28;20045;-82
2024/01/16 09:21:37;;;;;;;167.20;78.57;;;;;;;5.08;80.19;100641.34;5024777;28;20208;-83
2024/01/16 09:24:04;;;;;;;177.55;84.53;;;;;;;5.22;80.25;100654.47;5023085;28;20132;-82
2024/01/16 09:26:33;;;;;;;167.60;85.13;;;;;;;5.27;80.19;100647.09;5024514;28;20050;-82
2024/01/16 09:29:01;;;;;;;178.57;92.60;;;;;;;5.19;80.05;100625.69;5023938;28;20404;-82
2024/01/16 09:31:32;;;;;;;183.63;90.80;;;;;;;4.99;80.02;100590.16;5019296;28;20335;-83
2024/01/16 09:34:00;;;;;;;173.88;88.38;;;;;;;5.26;80.04;100629.59;5009092;28;20051;-81
2024/01/16 09:36:31;;;;;;;194.48;90.03;;;;;;;4.93;80.10;100569.53;5021116;28;20056;-82
2024/01/16 09:38:58;;;;;;;187.57;94.70;;;;;;;5.40;79.91;100646.28;5023031;28;20487;-82
2024/01/16 09:41:26;;;;;;;186.02;92.05;;;;;;;5.39;80.14;100642.81;5021900;28;20140;-83
2024/01/16 09:43:54;;;;;;;190.40;94.32;;;;;;;5.10;80.59;100592.94;5022525;28;20128;-82
2024/01/16 09:46:25;;;;;;;184.20;93.95;;;;;;;5.18;81.00;100599.50;5021210;28;20072;-83
2024/01/16 09:48:55;;;;;;;;;;;;;;;5.46;81.07;100661.66;5023118;28;20053;-81
2024/01/16 09:51:32;;;;;;;186.65;88.15;;;;;;;5.47;80.64;100639.66;5021535;28;19921;-81
2024/01/16 09:54:08;;;;;;;171.85;84.05;;;;;;;5.44;80.94;100640.72;5022358;28;20506;-81
2024/01/16 09:56:42;;;;;;;175.85;87.40;;;;;;;5.61;80.69;100660.66;5039969;28;20176;-81
2024/01/16 09:59:10;;;;;;;179.77;86.63;;;;;;;5.67;80.70;100652.31;5037253;28;20175;-83
2024/01/16 10:01:41;;;;;;;180.60;86.00;;;;;;;5.39;80.87;100613.00;5031172;28;20690;-82
2024/01/16 10:04:08;;;;;;;171.57;85.22;;;;;;;5.70;80.78;100664.44;5043382;28;20056;-83
2024/01/16 10:06:39;;;;;;;187.40;89.88;;;;;;;5.75;80.54;100652.66;5043775;28;20056;-80
2024/01/16 10:09:06;;;;;;;193.32;94.05;;;;;;;5.80;80.81;100660.22;5044467;28;20064;-81
2024/01/16 10:11:36;;;;;;;190.55;90.10;;;;;;;5.82;81.10;100657.50;5043149;28;20061;-82
2024/01/16 10:14:06;;;;;;;201.35;98.95;;;;;;;5.84;81.04;100653.81;5058999;28;20130;-82
2024/01/16 10:16:59;;;;;;;219.10;106.15;;;;;;;5.82;80.52;100653.06;5021392;28;20072;-81
2024/01/16 10:19:28;;;;;;;218.98;106.95;;;;;;;5.86;80.71;100653.72;5007592;28;20038;-82
2024/01/16 10:22:12;;;;;;;229.85;115.18;;;;;;;5.82;80.94;100639.06;5021828;28;20049;-82
2024/01/16 10:24:42;;;;;;;252.13;120.57;;;;;;;6.02;80.38;100649.13;5021698;28;20053;-82
2024/01/16 10:27:09;;;;;;;255.40;118.30;;;;;;;6.11;80.11;100648.47;5022012;28;20053;-82
2024/01/16 10:29:36;;;;;;;261.45;125.90;;;;;;;6.05;78.81;100648.91;5020507;28;20079;-82
2024/01/16 10:32:29;;;;;;;267.50;127.03;;;;;;;6.06;78.40;100649.75;5020717;28;20249;-82
2024/01/16 10:35:10;;;;;;;271.70;124.40;;;;;;;5.66;79.02;100590.06;5021574;28;20063;-81
2024/01/16 10:37:54;;;;;;;243.85;117.00;;;;;;;6.12;79.18;100658.06;5022119;28;20487;-81
2024/01/16 10:40:26;;;;;;;244.85;115.82;;;;;;;5.72;79.64;100587.00;5025280;28;20048;-81
2024/01/16 10:43:09;;;;;;;244.90;119.57;;;;;;;6.20;80.10;100663.66;5041214;28;20048;-82
2024/01/16 10:45:39;;;;;;;283.73;127.45;;;;;;;5.81;79.28;100582.91;5022813;28;20092;-80
2024/01/16 10:48:07;;;;;;;261.65;122.68;;;;;;;6.21;79.33;100648.66;5023137;28;20474;-82
2024/01/16 10:50:40;;;;;;;265.90;128.55;;;;;;;6.19;78.67;100656.69;5022498;28;20045;-82
2024/01/16 10:53:08;;;;;;;263.95;124.28;;;;;;;6.17;79.31;100648.06;5028306;28;20092;-81
2024/01/16 10:55:51;;;;;;;250.50;120.07;;;;;;;6.28;78.89;100654.34;5034547;28;20124;-82
2024/01/16 10:58:31;;;;;;;250.35;125.60;;;;;;;6.19;78.94;100655.88;5035383;28;20056;-82
2024/01/16 11:01:05;;;;;;;247.18;123.38;;;;;;;5.86;79.20;100611.56;5033459;28;20614;-81
2024/01/16 11:03:49;;;;;;;261.25;127.60;;;;;;;6.25;79.44;100670.41;5020715;28;20144;-81
2024/01/16 11:06:17;;;;;;;255.65;125.88;;;;;;;6.20;78.93;100668.91;5020004;28;20231;-82
2024/01/16 11:08:49;;;;;;;258.83;124.65;;;;;;;6.28;78.71;100667.53;5032819;28;20057;-81
2024/01/16 11:11:17;;;;;;;257.92;124.78;;;;;;;6.41;78.10;100671.03;5035611;28;20049;-83
2024/01/16 11:13:46;;;;;;;266.02;125.85;;;;;;;6.18;77.85;100606.72;5038950;28;20129;-81
2024/01/16 11:16:13;;;;;;;234.40;118.55;;;;;;;6.63;77.52;100671.19;5034785;28;20049;-81
2024/01/16 11:18:40;;;;;;;237.05;117.40;;;;;;;6.74;76.63;100664.28;5058621;28;20052;-82
2024/01/16 11:21:12;;;;;;;242.27;116.93;;;;;;;6.73;76.14;100681.91;5022007;28;20042;-82